Time;durP1;ratioP1;P1;durP2;ratioP2;P2;SDS_P1;SDS_P2;PMS_P1;PMS_P2;Temp;Humidity;BMP_temperature;BMP_pressure;BME280_temperature;BME280_humidity;BME280_pressure;Samples;Min_cycle;Max_cycle;Signal;HPM_P1;HPM_P2
2024/04/04 00:00:41;;;;;;;7.30;2.25;;;;;;;10.35;100.00;99092.34;5101108;28;20306;-93
2024/04/04 00:03:09;;;;;;;11.13;2.67;;;;;;;9.43;100.00;98933.03;5105707;28;20032;-93
2024/04/04 00:05:35;;;;;;;6.68;1.88;;;;;;;10.20;100.00;99036.81;5108938;28;20047;-94
2024/04/04 00:08:01;;;;;;;7.82;1.98;;;;;;;10.62;100.00;99095.31;5105963;28;20040;-93
2024/04/04 00:10:27;;;;;;;7.38;2.70;;;;;;;10.59;100.00;99098.03;5114399;28;20054;-93
2024/04/04 00:12:54;;;;;;;7.68;2.03;;;;;;;10.30;100.00;99046.38;5096014;28;20110;-93
2024/04/04 00:15:20;;;;;;;17.92;2.30;;;;;;;10.20;100.00;99036.81;5093567;28;20559;-93
2024/04/04 00:17:46;;;;;;;5.55;2.00;;;;;;;10.30;100.00;99046.38;5100385;28;20594;-93
2024/04/04 00:20:15;;;;;;;8.05;2.30;;;;;;;10.44;100.00;99041.63;5108468;28;20043;-95
2024/04/04 00:22:41;;;;;;;16.48;2.53;;;;;;;10.71;100.00;99064.97;5101684;28;20044;-92
2024/04/04 00:25:08;;;;;;;10.45;2.33;;;;;;;10.12;100.00;98956.38;5102129;28;20048;-92
2024/04/04 00:27:34;;;;;;;16.75;2.80;;;;;;;10.12;100.00;98951.94;5116097;28;20122;-93
2024/04/04 00:30:00;;;;;;;12.48;2.30;;;;;;;10.03;100.00;98945.03;5105603;28;20035;-94
2024/04/04 00:32:26;;;;;;;9.40;2.40;;;;;;;9.98;100.00;98946.06;5106232;28;20043;-93
2024/04/04 00:34:52;;;;;;;14.05;2.72;;;;;;;10.44;100.00;99030.13;5112462;28;20039;-94
2024/04/04 00:37:20;;;;;;;9.20;2.58;;;;;;;10.74;100.00;99086.19;5102832;28;20067;-92
2024/04/04 00:39:46;;;;;;;4.00;1.67;;;;;;;10.72;100.00;99085.34;5102554;28;20036;-93
2024/04/04 00:42:12;;;;;;;6.03;2.25;;;;;;;10.27;100.00;99004.75;5099644;28;20052;-93
2024/04/04 00:44:38;;;;;;;5.93;1.98;;;;;;;10.59;100.00;99028.91;5101047;28;20048;-93
2024/04/04 00:47:05;;;;;;;8.05;2.33;;;;;;;10.51;100.00;99045.03;5103854;28;20088;-93
2024/04/04 00:49:31;;;;;;;6.05;1.83;;;;;;;10.25;100.00;99008.34;5105814;28;20532;-94
2024/04/04 00:51:57;;;;;;;8.15;2.00;;;;;;;10.62;100.00;99092.66;5105000;28;20487;-94
2024/04/04 00:54:25;;;;;;;4.45;1.88;;;;;;;10.56;100.00;99093.69;5106847;28;20046;-93
2024/04/04 00:56:52;;;;;;;7.78;2.10;;;;;;;9.88;100.00;98971.94;5106380;28;20092;-93
2024/04/04 00:59:19;;;;;;;7.28;2.15;;;;;;;10.16;100.00;99035.13;5103629;28;20204;-94
2024/04/04 01:01:45;;;;;;;7.18;1.65;;;;;;;10.21;100.00;99044.78;5110578;28;20043;-94
2024/04/04 01:04:11;;;;;;;6.75;1.98;;;;;;;9.71;100.00;98979.38;5109706;28;20043;-95
2024/04/04 01:06:40;;;;;;;6.30;1.52;;;;;;;10.48;100.00;99087.63;5099553;28;20047;-93
2024/04/04 01:09:06;;;;;;;6.97;1.65;;;;;;;10.43;100.00;99095.72;5099347;28;20130;-93
2024/04/04 01:11:33;;;;;;;8.23;2.33;;;;;;;10.48;100.00;99095.63;5109205;28;20065;-93
2024/04/04 01:13:59;;;;;;;10.45;4.22;;;;;;;9.62;100.00;98951.22;5100043;28;20476;-94
2024/04/04 01:16:25;;;;;;;6.10;2.25;;;;;;;10.01;100.00;99009.75;5098649;28;20143;-94
2024/04/04 01:18:51;;;;;;;7.85;2.42;;;;;;;10.61;100.00;99093.56;5112019;28;20134;-93
2024/04/04 01:21:18;;;;;;;12.93;2.85;;;;;;;10.02;100.00;98972.53;5105881;28;20047;-93
2024/04/04 01:23:46;;;;;;;7.38;2.40;;;;;;;10.93;100.00;99103.50;5108318;28;20073;-94
2024/04/04 01:26:14;;;;;;;6.65;2.28;;;;;;;10.95;100.00;99099.00;5109358;28;20079;-93
2024/04/04 01:28:40;;;;;;;8.80;2.33;;;;;;;11.15;100.00;99097.66;5111260;28;20043;-92
2024/04/04 01:31:06;;;;;;;13.15;2.72;;;;;;;11.28;100.00;99097.31;5111340;27;20065;-93
2024/04/04 01:33:32;;;;;;;10.35;2.47;;;;;;;11.36;100.00;99097.09;5111933;27;20039;-93
2024/04/04 01:35:58;;;;;;;8.35;2.50;;;;;;;11.00;100.00;99009.28;5116637;28;20096;-93
2024/04/04 01:38:24;;;;;;;4.78;2.10;;;;;;;10.87;100.00;98976.78;5105157;28;20063;-94
2024/04/04 01:40:51;;;;;;;7.85;2.28;;;;;;;11.74;100.00;99100.59;5105146;27;20120;-93
2024/04/04 01:43:17;;;;;;;9.20;1.65;;;;;;;11.20;100.00;99022.09;5115719;27;20043;-94
2024/04/04 01:45:43;;;;;;;6.80;2.28;;;;;;;11.73;100.00;99098.81;5102221;28;20093;-94
2024/04/04 01:48:10;;;;;;;5.75;1.90;;;;;;;11.67;100.00;99091.88;5102827;27;20134;-94
2024/04/04 01:55:19;;;;;;;10.20;2.35;;;;;;;11.87;100.00;99093.13;5214719;27;20379;-93
2024/04/04 01:57:47;;;;;;;10.88;1.92;;;;;;;11.87;100.00;99085.16;5182314;27;20018;-93
2024/04/04 02:00:14;;;;;;;7.30;2.00;;;;;;;11.89;100.00;99076.22;5200690;27;20038;-93
2024/04/04 02:02:40;;;;;;;12.20;2.72;;;;;;;11.81;100.00;99087.97;5200804;27;20019;-93
2024/04/04 02:05:06;;;;;;;8.88;2.33;;;;;;;11.89;100.00;99092.22;5200904;27;20062;-93
2024/04/04 02:07:32;;;;;;;7.90;2.67;;;;;;;11.16;100.00;98975.16;5197166;27;21338;-93
2024/04/04 02:09:58;;;;;;;7.65;3.22;;;;;;;11.90;100.00;99090.41;5199269;27;20045;-94
2024/04/04 02:12:24;;;;;;;10.57;2.63;;;;;;;11.85;100.00;99089.63;5198235;27;20049;-93
2024/04/04 02:14:51;;;;;;;11.32;2.10;;;;;;;11.92;100.00;99091.25;5186917;27;20493;-93
2024/04/04 02:17:18;;;;;;;6.85;2.30;;;;;;;11.92;100.00;99093.91;5176391;27;20054;-93
2024/04/04 02:19:44;;;;;;;10.50;2.10;;;;;;;11.99;100.00;99092.84;5176030;27;20500;-94
2024/04/04 02:22:10;;;;;;;11.30;2.28;;;;;;;12.00;100.00;99093.72;5176391;27;20034;-94
2024/04/04 02:24:36;;;;;;;8.23;1.80;;;;;;;11.95;100.00;99088.50;5175657;27;20067;-93
2024/04/04 02:27:02;;;;;;;8.80;2.28;;;;;;;11.96;100.00;99086.72;5175755;27;20038;-93
2024/04/04 02:29:29;;;;;;;14.07;2.42;;;;;;;11.88;100.00;99090.47;5175478;27;20042;-93
2024/04/04 02:31:56;;;;;;;9.95;2.78;;;;;;;11.97;100.00;99093.78;5174786;27;20121;-93
2024/04/04 02:34:22;;;;;;;5.43;2.20;;;;;;;11.52;100.00;99025.69;5175374;27;20038;-94
2024/04/04 02:36:48;;;;;;;12.18;2.83;;;;;;;11.94;100.00;99089.41;5175415;27;20034;-92
2024/04/04 02:39:14;;;;;;;3.70;1.92;;;;;;;11.63;100.00;99042.25;5175563;27;20042;-92
2024/04/04 02:41:40;;;;;;;4.88;1.98;;;;;;;11.75;100.00;99088.13;5175452;27;20042;-93
2024/04/04 02:44:06;;;;;;;12.27;2.15;;;;;;;11.69;100.00;99106.03;5176229;27;20046;-93
2024/04/04 02:46:32;;;;;;;6.80;2.00;;;;;;;11.52;100.00;99065.66;5174640;27;20034;-93
2024/04/04 02:49:00;;;;;;;7.85;2.88;;;;;;;11.74;100.00;99097.06;5175251;27;20058;-92
2024/04/04 02:51:27;;;;;;;9.80;1.98;;;;;;;11.72;100.00;99095.28;5174988;27;20038;-94
2024/04/04 02:53:53;;;;;;;6.13;1.95;;;;;;;11.73;100.00;99109.47;5184008;27;20058;-93
2024/04/04 02:56:19;;;;;;;7.85;1.65;;;;;;;11.77;100.00;99103.16;5196375;27;20022;-94
2024/04/04 02:58:45;;;;;;;8.77;2.38;;;;;;;11.75;100.00;99101.44;5196026;27;20022;-94
2024/04/04 03:01:12;;;;;;;3.92;1.58;;;;;;;11.69;100.00;99084.72;5196063;27;20056;-94
2024/04/04 03:03:37;;;;;;;9.75;1.75;;;;;;;11.72;100.00;99108.59;5193814;27;20027;-92
2024/04/04 03:06:06;;;;;;;10.02;1.80;;;;;;;11.13;100.00;99014.31;5177823;27;20050;-92
2024/04/04 03:08:32;;;;;;;5.53;1.88;;;;;;;11.58;100.00;99107.22;5158670;27;20039;-93
2024/04/04 03:10:58;;;;;;;4.97;1.70;;;;;;;11.54;100.00;99105.53;5157790;27;20046;-93
2024/04/04 03:13:24;;;;;;;9.60;1.63;;;;;;;11.14;100.00;99051.50;5157417;27;20030;-93
2024/04/04 03:15:56;;;;;;;7.35;2.05;;;;;;;11.17;100.00;99055.88;5157159;27;20034;-93
2024/04/04 03:18:22;;;;;;;7.15;2.00;;;;;;;11.35;100.00;99105.16;5157067;27;20031;-93
2024/04/04 03:20:48;;;;;;;4.82;1.58;;;;;;;11.05;100.00;99062.38;5156876;27;20038;-93
2024/04/04 03:23:16;;;;;;;11.32;2.10;;;;;;;10.77;100.00;99027.59;5157196;27;20054;-93
2024/04/04 03:25:42;;;;;;;6.40;2.03;;;;;;;10.41;100.00;98982.31;5157315;27;20078;-94
2024/04/04 03:28:08;;;;;;;11.20;2.83;;;;;;;10.55;100.00;99027.22;5157431;27;20034;-94
2024/04/04 03:30:34;;;;;;;10.57;2.35;;;;;;;11.08;100.00;99115.53;5156462;27;20054;-93
2024/04/04 03:32:59;;;;;;;9.95;1.67;;;;;;;10.83;100.00;99115.25;5157123;27;20058;-94
2024/04/04 03:35:26;;;;;;;4.38;1.42;;;;;;;10.85;100.00;99116.09;5157125;27;20042;-93
2024/04/04 03:37:52;;;;;;;7.97;1.70;;;;;;;10.78;100.00;99115.34;5157000;27;20077;-93
2024/04/04 03:40:20;;;;;;;10.60;2.17;;;;;;;10.12;100.00;99031.66;5157087;27;20043;-94
2024/04/04 03:42:46;;;;;;;6.30;1.90;;;;;;;10.59;100.00;99109.56;5157172;27;20099;-94
2024/04/04 03:45:12;;;;;;;7.80;1.70;;;;;;;10.24;100.00;99128.88;5156415;27;20034;-94
2024/04/04 03:47:38;;;;;;;10.27;2.50;;;;;;;9.57;100.00;99004.44;5157173;27;20490;-94
2024/04/04 03:50:05;;;;;;;7.78;1.55;;;;;;;9.44;100.00;99050.69;5157255;27;20030;-93
2024/04/04 03:52:31;;;;;;;7.32;1.73;;;;;;;9.65;100.00;99083.94;5149827;27;20051;-93
2024/04/04 03:54:57;;;;;;;12.88;2.75;;;;;;;9.69;100.00;99088.28;5136907;27;20110;-93
2024/04/04 03:57:25;;;;;;;10.02;2.92;;;;;;;9.81;100.00;99119.06;5138102;27;20119;-95
2024/04/04 03:59:51;;;;;;;6.88;2.20;;;;;;;9.26;100.00;99041.28;5137408;27;20558;-93
2024/04/04 04:02:17;;;;;;;6.53;2.28;;;;;;;9.75;100.00;99125.34;5136542;27;20043;-94
2024/04/04 04:04:44;;;;;;;5.20;1.85;;;;;;;10.02;100.00;99128.41;5136329;27;20035;-95
2024/04/04 04:07:10;;;;;;;8.10;2.50;;;;;;;10.14;100.00;99132.59;5134994;27;20113;-94
2024/04/04 04:09:36;;;;;;;8.23;2.05;;;;;;;10.20;100.00;99128.03;5133641;27;20042;-93
2024/04/04 04:12:02;;;;;;;4.60;2.13;;;;;;;10.30;100.00;99139.41;5135068;27;20127;-92
2024/04/04 04:14:29;;;;;;;6.60;2.97;;;;;;;10.24;100.00;99123.56;5135455;27;20046;-93
2024/04/04 04:16:55;;;;;;;6.15;1.98;;;;;;;10.20;100.00;99121.84;5134532;27;20043;-92
2024/04/04 04:19:21;;;;;;;10.02;2.63;;;;;;;10.13;100.00;99122.88;5135082;27;20039;-93
2024/04/04 04:21:47;;;;;;;5.50;1.75;;;;;;;10.31;100.00;99130.53;5134952;27;20039;-93
2024/04/04 04:24:13;;;;;;;3.13;2.05;;;;;;;9.97;100.00;99059.41;5132375;27;20529;-93
2024/04/04 04:26:39;;;;;;;2.63;1.50;;;;;;;10.55;100.00;99137.09;5134687;27;20059;-92
2024/04/04 04:29:05;;;;;;;5.55;1.92;;;;;;;10.60;100.00;99129.03;5134664;27;20046;-93
2024/04/04 04:31:34;;;;;;;6.35;1.85;;;;;;;10.46;100.00;99092.13;5130739;27;20047;-93
2024/04/04 04:34:04;;;;;;;5.20;1.98;;;;;;;10.19;100.00;99049.25;5135371;27;20076;-93
2024/04/04 04:36:32;;;;;;;5.57;1.42;;;;;;;10.72;100.00;99122.59;5120587;27;20129;-92
2024/04/04 04:38:58;;;;;;;4.03;1.85;;;;;;;10.60;100.00;99098.00;5122043;27;20088;-93
2024/04/04 04:41:24;;;;;;;10.32;2.25;;;;;;;10.39;100.00;99058.59;5117609;27;20039;-94
2024/04/04 04:43:50;;;;;;;8.45;2.25;;;;;;;10.16;100.00;99027.16;5117468;27;20035;-94
2024/04/04 04:46:17;;;;;;;7.82;2.20;;;;;;;9.96;100.00;99006.31;5116714;27;20039;-92
2024/04/04 04:48:45;;;;;;;6.47;2.53;;;;;;;10.75;100.00;99138.47;5117353;27;20031;-93
2024/04/04 04:51:12;;;;;;;11.43;2.13;;;;;;;10.30;100.00;99064.09;5122197;27;20047;-93
2024/04/04 04:53:38;;;;;;;8.05;2.10;;;;;;;10.38;100.00;99068.34;5133577;27;20046;-93
2024/04/04 04:56:05;;;;;;;11.05;2.72;;;;;;;10.07;100.00;98999.00;5137969;27;20058;-93
2024/04/04 04:58:32;;;;;;;4.13;1.85;;;;;;;10.39;100.00;99058.59;5136864;27;20042;-92
2024/04/04 05:00:58;;;;;;;6.25;1.65;;;;;;;10.72;100.00;99096.84;5139209;27;20141;-96
2024/04/04 05:03:25;;;;;;;8.88;2.17;;;;;;;10.51;100.00;99060.97;5138298;27;20074;-92
2024/04/04 05:05:53;;;;;;;8.25;1.73;;;;;;;11.00;100.00;99141.47;5138973;27;20107;-93
2024/04/04 05:08:19;;;;;;;12.73;2.72;;;;;;;10.95;100.00;99143.34;5139326;27;20042;-94
2024/04/04 05:10:46;;;;;;;6.28;1.50;;;;;;;10.46;100.00;99055.75;5142352;27;20035;-95
2024/04/04 05:13:13;;;;;;;13.43;2.10;;;;;;;11.00;100.00;99149.47;5138566;27;20042;-95
2024/04/04 05:15:53;;;;;;;5.93;1.60;;;;;;;10.23;100.00;99015.47;5137992;27;20076;-96
2024/04/04 05:18:19;;;;;;;9.40;1.88;;;;;;;11.03;100.00;99157.34;5140391;27;20121;-95
2024/04/04 05:20:45;;;;;;;6.07;2.00;;;;;;;11.14;100.00;99151.78;5139267;27;20550;-95
2024/04/04 05:23:13;;;;;;;7.50;1.98;;;;;;;10.76;100.00;99087.03;5162060;27;20050;-95
2024/04/04 05:25:39;;;;;;;4.25;1.60;;;;;;;10.84;100.00;99085.06;5159482;27;20060;-94
2024/04/04 05:28:06;;;;;;;7.80;2.15;;;;;;;11.44;100.00;99171.47;5146869;27;20035;-95
2024/04/04 05:30:32;;;;;;;5.78;1.50;;;;;;;11.23;100.00;99106.31;5139024;27;20074;-94
2024/04/04 05:33:00;;;;;;;5.53;1.73;;;;;;;10.97;100.00;99051.91;5139821;27;20138;-95
2024/04/04 05:35:27;;;;;;;4.82;1.55;;;;;;;11.00;100.00;99043.00;5141437;27;20039;-94
2024/04/04 05:37:56;;;;;;;5.45;1.60;;;;;;;11.86;100.00;99192.63;5143010;27;20133;-93
2024/04/04 05:40:24;;;;;;;6.63;2.25;;;;;;;11.49;100.00;99114.53;5143477;27;20061;-96
2024/04/04 05:42:50;;;;;;;6.47;1.63;;;;;;;11.96;100.00;99194.19;5145806;27;20066;-96
2024/04/04 05:45:16;;;;;;;4.85;2.15;;;;;;;12.00;100.00;99189.66;5141613;27;20043;-94
2024/04/04 05:47:43;;;;;;;10.25;2.83;;;;;;;12.05;100.00;99190.41;5141174;27;20066;-96
2024/04/04 05:50:09;;;;;;;8.05;3.63;;;;;;;11.59;100.00;99098.31;5141413;27;20051;-95
2024/04/04 05:52:35;;;;;;;10.82;2.97;;;;;;;11.90;100.00;99152.56;5147741;27;20050;-95
2024/04/04 05:55:02;;;;;;;10.90;2.83;;;;;;;11.55;100.00;99086.88;5160436;27;20042;-95
2024/04/04 05:57:30;;;;;;;9.68;3.33;;;;;;;12.26;100.00;99196.97;5159711;27;20045;-95
2024/04/04 05:59:56;;;;;;;11.05;3.22;;;;;;;11.81;100.00;99131.47;5163773;27;20473;-95
2024/04/04 06:02:22;;;;;;;8.38;2.70;;;;;;;12.00;100.00;99155.88;5161489;27;20042;-95
2024/04/04 06:04:50;;;;;;;8.10;3.22;;;;;;;11.57;100.00;99062.88;5160084;27;20046;-95
2024/04/04 06:07:16;;;;;;;33.90;11.45;;;;;;;12.12;100.00;99152.91;5160779;27;20042;-96
2024/04/04 06:09:42;;;;;;;12.90;5.55;;;;;;;11.67;100.00;99053.72;5161634;27;20112;-95
2024/04/04 06:12:08;;;;;;;10.45;3.47;;;;;;;12.47;100.00;99184.81;5161453;27;20554;-95
2024/04/04 06:14:38;;;;;;;14.30;3.00;;;;;;;11.90;100.00;99056.63;5161913;27;20039;-95
2024/04/04 06:17:04;;;;;;;8.65;2.88;;;;;;;12.85;100.00;99186.38;5162453;27;20043;-95
2024/04/04 06:19:30;;;;;;;12.35;3.08;;;;;;;12.31;100.00;99061.72;5161729;27;20484;-95
2024/04/04 06:21:56;;;;;;;17.40;3.50;;;;;;;12.61;100.00;99096.41;5160989;27;20045;-95
2024/04/04 06:24:23;;;;;;;6.28;2.40;;;;;;;13.07;100.00;99172.38;5159260;27;20038;-95
2024/04/04 06:26:49;;;;;;;6.47;2.80;;;;;;;12.86;100.00;99133.88;5160688;27;20088;-96
2024/04/04 06:29:15;;;;;;;4.63;2.30;;;;;;;13.23;100.00;99195.03;5160008;27;20073;-96
2024/04/04 06:31:43;;;;;;;14.63;2.63;;;;;;;12.81;100.00;99102.00;5161364;27;20145;-95
2024/04/04 06:34:09;;;;;;;8.95;2.70;;;;;;;13.03;100.00;99104.00;5161159;27;20038;-95
2024/04/04 06:36:35;;;;;;;4.30;1.73;;;;;;;12.97;100.00;99069.47;5160775;27;20042;-95
2024/04/04 06:39:03;;;;;;;6.15;1.85;;;;;;;13.76;100.00;99197.81;5160912;27;20517;-95
2024/04/04 06:41:30;;;;;;;7.10;1.90;;;;;;;13.84;100.00;99210.06;5142797;27;20034;-96
2024/04/04 06:43:56;;;;;;;10.73;4.00;;;;;;;13.92;100.00;99205.31;5143709;27;20106;-95
2024/04/04 06:46:22;;;;;;;7.65;2.92;;;;;;;13.63;100.00;99164.41;5146054;27;20046;-95
2024/04/04 06:48:50;;;;;;;5.70;2.33;;;;;;;13.77;100.00;99177.31;5142869;27;20039;-95
2024/04/04 06:51:16;;;;;;;9.38;2.30;;;;;;;13.48;100.00;99132.84;5143153;27;20043;-95
2024/04/04 06:53:42;;;;;;;5.45;2.47;;;;;;;13.87;100.00;99202.78;5122277;27;20055;-95
2024/04/04 06:56:08;;;;;;;10.00;2.50;;;;;;;13.13;100.00;99079.63;5138986;27;20043;-96
2024/04/04 06:58:35;;;;;;;10.95;2.38;;;;;;;13.87;100.00;99194.78;5148640;27;20019;-95
2024/04/04 07:01:02;;;;;;;8.20;2.00;;;;;;;13.09;100.00;99061.94;5137646;27;20067;-95
2024/04/04 07:03:31;;;;;;;5.55;1.73;;;;;;;13.30;100.00;99084.44;5161173;27;20034;-95
2024/04/04 07:05:58;;;;;;;5.38;1.75;;;;;;;13.93;100.00;99205.25;5150226;27;20015;-94
2024/04/04 07:08:24;;;;;;;11.63;2.35;;;;;;;13.40;100.00;99111.72;5147765;27;20044;-95
2024/04/04 07:10:58;;;;;;;8.35;2.03;;;;;;;14.11;100.00;99205.56;5157015;27;20095;-96
2024/04/04 07:13:26;;;;;;;;;;;;;;;14.21;100.00;99200.78;5135195;27;20039;-94
2024/04/04 07:16:02;;;;;;;4.60;1.45;;;;;;;14.35;100.00;99203.81;5124339;27;19919;-95
2024/04/04 07:18:30;;;;;;;4.72;1.38;;;;;;;14.55;100.00;99205.81;5138169;27;20035;-95
2024/04/04 07:20:58;;;;;;;3.00;1.50;;;;;;;14.70;100.00;99135.69;5146826;27;20050;-96
2024/04/04 07:23:24;;;;;;;6.25;1.67;;;;;;;14.60;100.00;99098.63;5147661;27;20047;-95
2024/04/04 07:25:51;;;;;;;5.95;1.45;;;;;;;14.81;100.00;99105.78;5150853;27;20142;-95
2024/04/04 07:28:18;;;;;;;5.72;1.42;;;;;;;15.43;100.00;99218.59;5143493;27;20034;-94
2024/04/04 07:30:44;;;;;;;8.68;1.75;;;;;;;15.20;100.00;99228.38;5144168;27;20063;-96
2024/04/04 07:33:11;;;;;;;6.28;2.08;;;;;;;15.01;100.00;99158.59;5143822;27;20069;-95
2024/04/04 07:35:38;;;;;;;7.63;1.60;;;;;;;14.96;100.00;99107.00;5144145;27;20023;-96
2024/04/04 07:38:06;;;;;;;12.82;1.90;;;;;;;15.25;100.00;99108.53;5144362;27;20023;-96
2024/04/04 07:40:34;;;;;;;4.13;1.63;;;;;;;15.81;100.00;99199.16;5144290;27;20118;-96
2024/04/04 07:43:01;;;;;;;5.80;1.45;;;;;;;15.27;100.00;99095.94;5136078;27;20039;-95
2024/04/04 07:45:30;;;;;;;6.43;1.60;;;;;;;15.19;100.00;99227.50;5127214;27;20035;-95
2024/04/04 07:47:59;;;;;;;4.43;1.67;;;;;;;15.23;100.00;99225.59;5124142;27;20056;-95
2024/04/04 07:50:25;;;;;;;5.57;1.67;;;;;;;15.19;100.00;99226.63;5127633;27;20126;-95
2024/04/04 07:52:52;;;;;;;4.47;1.83;;;;;;;15.55;100.00;99243.09;5133247;27;20047;-95
2024/04/04 07:55:20;;;;;;;5.57;1.88;;;;;;;15.70;100.00;99238.03;5143750;27;20035;-95
2024/04/04 07:57:46;;;;;;;7.72;2.78;;;;;;;14.90;100.00;99102.78;5143385;27;20043;-96
2024/04/04 08:00:15;;;;;;;10.82;2.10;;;;;;;14.82;100.00;99115.59;5145195;27;20046;-96
2024/04/04 08:02:41;;;;;;;9.80;2.75;;;;;;;15.03;100.00;99110.31;5143860;27;20129;-95
2024/04/04 08:05:08;;;;;;;8.70;2.50;;;;;;;16.09;100.00;99230.19;5142488;27;20039;-95
2024/04/04 08:07:36;;;;;;;8.20;2.40;;;;;;;15.04;100.00;99112.06;5143783;27;20035;-95
2024/04/04 08:10:05;;;;;;;8.05;2.08;;;;;;;14.93;100.00;99086.56;5143451;27;20046;-95
2024/04/04 08:12:35;;;;;;;4.88;2.25;;;;;;;15.59;100.00;99215.22;5142567;27;20042;-95
2024/04/04 08:15:03;;;;;;;4.15;1.30;;;;;;;16.25;100.00;99216.13;5141476;27;20034;-95
2024/04/04 08:17:30;;;;;;;7.57;1.40;;;;;;;15.38;100.00;99114.25;5142471;27;20042;-95
2024/04/04 08:19:57;;;;;;;8.40;1.67;;;;;;;16.37;100.00;99224.53;5144616;27;20100;-96
2024/04/04 08:22:23;;;;;;;5.97;2.33;;;;;;;15.74;100.00;99074.34;5143233;27;20043;-95
2024/04/04 08:24:49;;;;;;;3.40;1.25;;;;;;;16.26;100.00;99108.69;5143866;27;20035;-96
2024/04/04 08:27:15;;;;;;;3.85;1.48;;;;;;;17.17;100.00;99222.75;5143141;27;20039;-95
2024/04/04 08:29:46;;;;;;;5.43;2.03;;;;;;;17.32;100.00;99224.72;5143288;27;20486;-95
2024/04/04 08:32:12;;;;;;;4.75;1.17;;;;;;;17.41;100.00;99223.41;5143046;27;20056;-95
2024/04/04 08:38:24;;;;;;;5.03;1.20;;;;;;;17.25;100.00;99140.81;5087838;27;2124457;-96
2024/04/04 08:40:53;;;;;;;3.65;0.85;;;;;;;17.68;100.00;99225.72;5146906;27;20041;-96
2024/04/04 08:43:21;;;;;;;7.30;1.33;;;;;;;17.32;100.00;99106.44;5134426;28;20100;-96
2024/04/04 08:45:48;;;;;;;8.30;1.63;;;;;;;18.14;100.00;99228.84;5123859;28;20040;-96
2024/04/04 08:48:18;;;;;;;6.30;1.20;;;;;;;17.42;100.00;99102.34;5127059;28;20043;-96
2024/04/04 08:50:51;;;;;;;4.13;1.10;;;;;;;17.84;100.00;99113.75;5126262;28;20072;-96
2024/04/04 08:53:23;;;;;;;3.80;0.85;;;;;;;17.70;100.00;99100.13;5134286;27;20080;-96
2024/04/04 08:55:55;;;;;;;5.25;1.10;;;;;;;18.34;100.00;99139.84;5147684;27;20039;-96
2024/04/04 08:58:25;;;;;;;5.03;1.40;;;;;;;19.17;100.00;99223.44;5139793;28;20464;-96
2024/04/04 09:00:52;;;;;;;8.55;1.88;;;;;;;18.27;100.00;99130.34;5142513;27;20039;-96
2024/04/04 09:03:22;;;;;;;11.05;1.17;;;;;;;18.27;100.00;99122.28;5122947;28;20043;-96
2024/04/04 09:05:49;;;;;;;;;;;;;;;18.87;100.00;99214.25;5131029;27;20120;-96
2024/04/04 09:08:15;;;;;;;6.43;1.13;;;;;;;18.44;100.00;99092.63;5137308;27;19919;-96
2024/04/04 09:10:45;;;;;;;5.60;0.95;;;;;;;18.85;100.00;99202.69;5143278;27;20232;-96
2024/04/04 09:13:17;;;;;;;5.00;0.93;;;;;;;18.06;100.00;99083.91;5139453;27;20047;-96
2024/04/04 09:15:44;;;;;;;5.80;1.30;;;;;;;18.93;100.00;99180.69;5129092;27;20038;-96
2024/04/04 09:18:11;;;;;;;2.85;1.00;;;;;;;19.23;100.00;99205.09;5141129;27;20043;-96
2024/04/04 09:20:38;;;;;;;8.02;1.15;;;;;;;19.23;100.00;99205.09;5140644;27;20138;-96
2024/04/04 09:23:06;;;;;;;4.82;1.20;;;;;;;19.03;99.13;99135.25;5142047;27;20043;-96
2024/04/04 09:25:34;;;;;;;4.85;1.13;;;;;;;18.98;98.46;99118.47;5128928;28;20039;-96
2024/04/04 09:28:08;;;;;;;5.28;0.90;;;;;;;19.41;95.20;99216.69;5126022;27;20118;-96
2024/04/04 09:30:41;;;;;;;3.78;0.70;;;;;;;18.85;98.50;99189.22;5145897;27;20047;-96
2024/04/04 09:33:09;;;;;;;4.32;1.05;;;;;;;19.59;91.63;99205.81;5118080;28;20039;-96
2024/04/04 09:35:35;;;;;;;8.23;0.98;;;;;;;19.89;91.62;99201.38;5118869;28;20131;-95
2024/04/04 09:38:05;;;;;;;5.20;1.20;;;;;;;18.73;94.40;99106.31;5124259;28;20089;-96
2024/04/04 09:40:34;;;;;;;5.60;1.08;;;;;;;19.10;91.24;99090.81;5119395;28;20550;-96
2024/04/04 09:43:03;;;;;;;2.33;0.85;;;;;;;19.70;92.07;99138.66;5106943;28;20035;-95
2024/04/04 09:45:29;;;;;;;7.68;1.30;;;;;;;19.59;91.15;99092.50;5117891;28;20035;-96
2024/04/04 09:47:55;;;;;;;6.00;1.20;;;;;;;19.83;95.14;99125.28;5097756;28;20070;-96
2024/04/04 09:50:21;;;;;;;4.32;1.30;;;;;;;20.39;87.50;99182.25;5101976;28;20036;-96
2024/04/04 09:52:48;;;;;;;4.30;1.35;;;;;;;19.95;85.43;99220.84;5101453;28;20032;-95
2024/04/04 09:55:17;;;;;;;4.25;1.17;;;;;;;20.21;86.83;99220.22;5100782;28;20043;-95
2024/04/04 09:57:44;;;;;;;3.30;0.90;;;;;;;19.07;84.20;99223.94;5084309;28;20063;-96
2024/04/04 10:00:14;;;;;;;2.63;0.98;;;;;;;18.47;89.95;99113.97;5080947;28;20048;-96
2024/04/04 10:02:46;;;;;;;6.82;0.95;;;;;;;19.36;91.99;99213.34;5081698;28;20134;-96
2024/04/04 10:05:18;;;;;;;2.75;1.27;;;;;;;18.89;88.57;99103.69;5087101;28;20039;-95
2024/04/04 10:07:44;;;;;;;2.58;0.95;;;;;;;19.49;79.55;99198.22;5082490;28;20119;-96
2024/04/04 10:10:19;;;;;;;5.18;1.17;;;;;;;19.95;76.02;99223.56;5081801;28;20043;-95
2024/04/04 10:12:49;;;;;;;3.30;1.00;;;;;;;20.01;73.66;99218.66;5101815;28;20035;-95
2024/04/04 10:15:18;;;;;;;2.90;1.10;;;;;;;18.52;76.88;99177.50;5099455;28;20047;-94
2024/04/04 10:17:45;;;;;;;4.50;1.00;;;;;;;19.26;73.19;99231.03;5082884;28;20055;-94
2024/04/04 10:20:12;;;;;;;2.75;0.93;;;;;;;18.78;69.76;99163.56;5082685;28;20044;-93
2024/04/04 10:22:39;;;;;;;1.90;0.90;;;;;;;19.22;69.49;99191.72;5080689;28;20048;-94
2024/04/04 10:25:05;;;;;;;8.80;1.30;;;;;;;19.95;68.21;99237.06;5082892;28;20430;-94
2024/04/04 10:27:31;;;;;;;2.55;0.90;;;;;;;18.89;68.14;99130.63;5079449;28;20044;-95
2024/04/04 10:29:58;;;;;;;2.55;0.95;;;;;;;19.62;67.66;99238.00;5079736;28;20139;-93
2024/04/04 10:32:29;;;;;;;4.15;0.70;;;;;;;18.93;70.08;99218.41;5080431;28;20058;-95
2024/04/04 10:35:02;;;;;;;4.20;0.95;;;;;;;19.37;67.08;99238.53;5078485;28;20043;-93
2024/04/04 10:37:29;;;;;;;2.78;1.02;;;;;;;19.69;66.75;99240.31;5092606;28;20035;-95
2024/04/04 10:39:56;;;;;;;3.05;1.55;;;;;;;19.73;70.31;99237.44;5097288;28;20055;-94
2024/04/04 10:42:23;;;;;;;2.38;1.00;;;;;;;19.66;68.33;99247.66;5095744;28;20040;-93
2024/04/04 10:44:53;;;;;;;3.22;1.48;;;;;;;19.03;66.83;99179.25;5098284;28;20040;-96
2024/04/04 10:47:20;;;;;;;6.32;0.98;;;;;;;19.18;67.05;99169.44;5099262;28;20043;-94
2024/04/04 10:49:48;;;;;;;4.07;1.55;;;;;;;19.63;66.13;99173.16;5122870;28;20052;-95
2024/04/04 10:52:14;;;;;;;4.65;0.82;;;;;;;;;;5116609;28;20024;-94
2024/04/04 10:54:41;;;;;;;1.67;0.80;;;;;;;20.28;62.60;99196.41;5116449;28;20036;-95
2024/04/04 10:57:08;;;;;;;3.10;1.00;;;;;;;20.45;64.44;99189.97;5118651;28;20026;-95
2024/04/04 10:59:35;;;;;;;2.90;0.82;;;;;;;20.09;62.60;99127.28;5117077;28;20024;-95
2024/04/04 11:02:04;;;;;;;5.18;2.13;;;;;;;20.22;62.07;99223.78;5099857;28;20052;-94
2024/04/04 11:04:32;;;;;;;2.88;1.10;;;;;;;20.17;61.85;99228.56;5094831;28;20499;-96
2024/04/04 11:07:00;;;;;;;3.60;1.10;;;;;;;19.99;62.86;99160.34;5094484;28;20550;-93
2024/04/04 11:09:26;;;;;;;4.53;1.10;;;;;;;20.22;59.98;99153.56;5094459;28;20043;-93
2024/04/04 11:11:53;;;;;;;3.63;0.90;;;;;;;20.08;59.91;99105.78;5094763;28;20130;-92
2024/04/04 11:14:21;;;;;;;1.90;0.80;;;;;;;20.77;59.95;99208.78;5077861;28;20058;-93
2024/04/04 11:16:49;;;;;;;3.92;1.00;;;;;;;20.25;59.03;99162.31;5092545;28;20044;-93
2024/04/04 11:19:17;;;;;;;4.18;1.10;;;;;;;19.90;61.34;99202.22;5098652;28;20537;-94
2024/04/04 11:21:43;;;;;;;3.55;1.10;;;;;;;19.60;63.78;99186.81;5098440;28;20054;-93
2024/04/04 11:24:10;;;;;;;4.65;1.48;;;;;;;19.87;65.38;99203.28;5098071;28;20066;-95
2024/04/04 11:26:36;;;;;;;4.93;1.15;;;;;;;20.02;62.68;99212.31;5097157;28;20054;-94
2024/04/04 11:29:03;;;;;;;2.65;0.80;;;;;;;20.01;62.87;99142.22;5091116;28;20067;-93
2024/04/04 11:31:29;;;;;;;2.78;1.13;;;;;;;19.75;59.99;99120.34;5097908;28;20043;-93
2024/04/04 11:33:55;;;;;;;4.50;0.80;;;;;;;20.03;60.26;99170.00;5098702;28;20031;-94